createdAt,value
2018-03-27T00:01:01.961Z,27.87
2018-03-27T00:02:03.491Z,27.00
2018-03-27T00:03:05.009Z,25.83
2018-03-27T00:04:06.541Z,23.47
2018-03-27T00:05:15.398Z,26.27
2018-03-27T00:06:17.001Z,28.77
2018-03-27T00:07:18.477Z,28.03
2018-03-27T00:08:20.714Z,28.17
2018-03-27T00:09:22.500Z,28.40
2018-03-27T00:10:24.739Z,27.23
2018-03-27T00:11:26.251Z,28.37
2018-03-27T00:12:27.735Z,26.87
2018-03-27T00:13:29.231Z,25.20
2018-03-27T00:14:30.729Z,28.50
2018-03-27T00:15:32.216Z,24.73
2018-03-27T00:16:34.437Z,26.90
2018-03-27T00:17:35.917Z,28.30
2018-03-27T00:18:37.441Z,26.83
2018-03-27T00:19:40.061Z,29.80
2018-03-27T00:20:41.545Z,30.13
2018-03-27T00:21:43.041Z,30.13
2018-03-27T00:22:45.293Z,27.50
2018-03-27T00:23:46.799Z,28.67
2018-03-27T00:24:49.374Z,30.77
2018-03-27T00:25:50.859Z,28.13
2018-03-27T00:27:00.133Z,30.77
2018-03-27T00:28:15.572Z,30.30
2018-03-27T00:29:35.560Z,30.20
2018-03-27T00:30:55.717Z,29.37
2018-03-27T00:32:15.449Z,29.33
2018-03-27T00:33:35.353Z,27.50
2018-03-27T00:34:55.296Z,27.17
2018-03-27T00:36:16.237Z,26.50
2018-03-27T00:38:03.457Z,25.40
2018-03-27T00:39:23.999Z,28.63
2018-03-27T00:40:41.735Z,29.17
2018-03-27T00:44:00.465Z,26.80
2018-03-27T00:45:03.087Z,29.30
2018-03-27T00:46:04.564Z,28.33
2018-03-27T00:47:07.851Z,29.83
2018-03-27T00:48:09.359Z,29.27
2018-03-27T00:49:10.843Z,28.90
2018-03-27T00:50:12.329Z,29.93
2018-03-27T00:51:13.820Z,28.50
2018-03-27T00:52:15.297Z,31.30
2018-03-27T00:53:16.793Z,31.97
2018-03-27T00:57:13.566Z,30.63
2018-03-27T00:58:15.071Z,30.77
2018-03-27T00:59:16.902Z,30.67
2018-03-27T01:00:19.195Z,29.33
2018-03-27T01:01:20.662Z,31.63
2018-03-27T01:02:22.141Z,34.23
2018-03-27T01:03:23.624Z,33.90
2018-03-27T01:04:25.111Z,34.03
2018-03-27T01:05:26.576Z,33.47
2018-03-27T01:06:28.080Z,31.30
2018-03-27T01:08:34.071Z,33.33
2018-03-27T01:09:37.049Z,33.57
2018-03-27T01:10:39.622Z,33.27
2018-03-27T01:11:42.785Z,33.20
2018-03-27T01:12:44.241Z,34.57
2018-03-27T01:13:45.697Z,30.30
2018-03-27T01:14:47.961Z,33.63
2018-03-27T01:17:07.108Z,32.90
2018-03-27T01:18:08.605Z,30.10
2018-03-27T01:19:10.093Z,33.43
2018-03-27T01:20:12.682Z,32.73
2018-03-27T01:21:14.177Z,30.13
2018-03-27T01:22:15.676Z,31.03
2018-03-27T01:23:17.882Z,30.87
2018-03-27T01:24:19.355Z,32.50
2018-03-27T01:25:20.937Z,29.37
2018-03-27T01:26:23.533Z,31.33
2018-03-27T01:27:25.768Z,33.67
2018-03-27T01:28:27.247Z,32.83
2018-03-27T01:29:29.607Z,31.10
2018-03-27T01:30:31.835Z,33.03
2018-03-27T01:31:33.320Z,32.10
2018-03-27T01:32:34.805Z,31.73
2018-03-27T01:33:36.282Z,32.77
2018-03-27T01:34:37.801Z,30.17
2018-03-27T01:35:40.035Z,32.70
2018-03-27T01:38:12.249Z,31.70
2018-03-27T01:39:13.710Z,31.50
2018-03-27T01:40:16.858Z,33.20
2018-03-27T01:41:18.626Z,30.97
2018-03-27T01:42:20.086Z,30.97
2018-03-27T01:43:21.561Z,30.53
2018-03-27T01:44:23.789Z,31.07
2018-03-27T01:45:25.261Z,34.93
2018-03-27T01:46:26.909Z,33.20
2018-03-27T01:47:28.385Z,32.43
2018-03-27T01:48:30.615Z,35.03
2018-03-27T01:49:32.080Z,31.43
2018-03-27T01:50:33.550Z,32.77
2018-03-27T01:51:35.025Z,35.23
2018-03-27T01:52:37.247Z,31.07
2018-03-27T01:53:39.486Z,33.67
2018-03-27T01:55:30.145Z,33.13
2018-03-27T01:56:31.615Z,33.73
2018-03-27T01:57:33.853Z,35.70
2018-03-27T01:58:35.302Z,30.27
2018-03-27T01:59:37.549Z,33.17
2018-03-27T02:00:39.025Z,31.83
2018-03-27T02:02:22.125Z,31.97
2018-03-27T02:03:23.601Z,33.13
2018-03-27T02:04:45.175Z,32.47
2018-03-27T02:05:47.031Z,30.63
2018-03-27T02:06:48.517Z,32.97
2018-03-27T02:07:49.976Z,33.23
2018-03-27T02:08:51.793Z,33.80
2018-03-27T02:09:53.257Z,32.73
2018-03-27T02:11:01.630Z,31.80
2018-03-27T02:13:33.279Z,31.50
2018-03-27T02:14:40.837Z,34.57
2018-03-27T02:15:48.995Z,33.53
2018-03-27T02:16:56.601Z,32.80
2018-03-27T02:18:04.295Z,31.80
2018-03-27T02:19:11.664Z,31.23
2018-03-27T02:20:19.637Z,33.43
2018-03-27T02:21:24.541Z,34.13
2018-03-27T02:22:27.563Z,33.60
2018-03-27T02:23:34.689Z,32.37
2018-03-27T02:24:37.773Z,33.03
2018-03-27T02:26:48.068Z,34.17
2018-03-27T02:27:49.554Z,31.67
2018-03-27T02:28:52.520Z,31.67
2018-03-27T02:29:54.009Z,33.53
2018-03-27T02:30:56.978Z,31.27
2018-03-27T02:31:58.731Z,32.53
2018-03-27T02:33:00.217Z,33.17
2018-03-27T02:34:02.441Z,32.50
2018-03-27T02:35:03.938Z,29.87
2018-03-27T02:36:06.927Z,32.37
2018-03-27T02:37:08.456Z,30.13
2018-03-27T02:38:09.937Z,28.60
2018-03-27T02:39:11.402Z,31.13
2018-03-27T02:40:12.867Z,28.10
2018-03-27T02:41:14.325Z,28.33
2018-03-27T02:42:15.896Z,30.30
2018-03-27T02:43:19.108Z,30.73
2018-03-27T02:44:20.594Z,30.30
2018-03-27T02:45:22.066Z,31.93
2018-03-27T02:46:23.596Z,30.77
2018-03-27T02:47:25.345Z,31.70
2018-03-27T02:48:27.587Z,32.37
2018-03-27T02:49:29.062Z,32.73
2018-03-27T02:50:32.238Z,32.40
2018-03-27T02:51:34.516Z,33.20
2018-03-27T02:52:36.745Z,32.43
2018-03-27T02:53:38.251Z,32.20
2018-03-27T02:54:39.786Z,32.13
2018-03-27T02:55:41.241Z,31.20
2018-03-27T02:56:43.523Z,30.73
2018-03-27T02:57:46.059Z,29.37
2018-03-27T02:58:47.655Z,27.10
2018-03-27T02:59:49.862Z,27.57
2018-03-27T03:00:51.342Z,26.87
2018-03-27T03:01:52.860Z,26.37
2018-03-27T03:02:54.358Z,26.40
2018-03-27T03:03:56.990Z,26.70
2018-03-27T03:04:58.523Z,25.93
2018-03-27T03:06:00.034Z,24.90
2018-03-27T03:07:01.602Z,23.37
2018-03-27T03:08:04.840Z,24.43
2018-03-27T03:09:06.333Z,24.40
2018-03-27T03:10:07.851Z,24.47
2018-03-27T03:11:09.337Z,24.77
2018-03-27T03:12:11.916Z,24.77
2018-03-27T03:13:13.408Z,25.37
2018-03-27T03:14:14.938Z,25.60
2018-03-27T03:15:17.548Z,25.73
2018-03-27T03:16:19.045Z,23.90
2018-03-27T03:17:20.558Z,24.27
2018-03-27T03:18:22.075Z,23.03
2018-03-27T03:19:23.622Z,26.03
2018-03-27T03:20:25.090Z,25.37
2018-03-27T03:21:27.391Z,25.47
2018-03-27T03:22:28.896Z,26.90
2018-03-27T03:23:30.417Z,25.67
2018-03-27T03:24:31.935Z,29.07
2018-03-27T03:25:33.451Z,27.30
2018-03-27T03:26:34.966Z,25.60
2018-03-27T03:27:36.482Z,25.73
2018-03-27T03:28:39.041Z,25.53
2018-03-27T03:29:40.509Z,25.47
2018-03-27T03:30:42.783Z,23.93
2018-03-27T03:31:45.003Z,26.90
2018-03-27T03:32:46.506Z,23.30
2018-03-27T03:33:48.293Z,24.92
2018-03-27T03:34:49.802Z,26.40
2018-03-27T03:35:51.307Z,27.17
2018-03-27T03:36:52.873Z,25.63
2018-03-27T03:37:54.390Z,27.90
2018-03-27T03:38:57.262Z,29.63
2018-03-27T03:39:58.759Z,27.70
2018-03-27T03:41:00.245Z,30.00
2018-03-27T03:42:01.732Z,28.47
2018-03-27T03:43:03.224Z,28.93
2018-03-27T03:44:04.987Z,29.37
2018-03-27T03:45:06.513Z,30.00
2018-03-27T03:46:08.288Z,23.27
2018-03-27T03:47:09.859Z,28.27
2018-03-27T03:48:11.443Z,25.63
2018-03-27T03:49:13.326Z,26.03
2018-03-27T03:50:14.915Z,30.17
2018-03-27T03:51:16.478Z,27.47
2018-03-27T03:52:18.718Z,28.67
2018-03-27T03:53:20.213Z,29.33
2018-03-27T03:54:21.754Z,27.90
2018-03-27T03:55:23.243Z,25.23
2018-03-27T03:56:25.479Z,28.97
2018-03-27T03:57:26.969Z,27.13
2018-03-27T03:58:28.443Z,25.57
2018-03-27T03:59:29.953Z,25.23
2018-03-27T04:00:32.203Z,25.50
2018-03-27T04:01:33.673Z,24.53
2018-03-27T04:02:35.165Z,27.27
2018-03-27T04:03:36.691Z,28.73
2018-03-27T04:04:38.942Z,26.83
2018-03-27T04:05:40.417Z,28.20
2018-03-27T04:06:42.658Z,27.37
2018-03-27T04:07:44.205Z,25.07
2018-03-27T04:08:45.661Z,26.65
2018-03-27T04:09:47.181Z,28.93
2018-03-27T04:10:48.680Z,28.47
2018-03-27T04:11:50.176Z,28.73
2018-03-27T04:12:52.413Z,28.20
2018-03-27T04:13:53.899Z,27.90
2018-03-27T04:14:55.395Z,28.47
2018-03-27T04:15:56.892Z,27.90
2018-03-27T04:16:58.406Z,25.90
2018-03-27T04:18:00.665Z,25.73
2018-03-27T04:19:02.184Z,24.50
2018-03-27T04:20:03.773Z,26.55
2018-03-27T04:21:05.273Z,28.30
2018-03-27T04:22:06.765Z,27.17
2018-03-27T04:23:08.801Z,27.37
2018-03-27T04:24:10.315Z,27.10
2018-03-27T04:25:12.581Z,28.83
2018-03-27T04:26:14.074Z,27.23
2018-03-27T04:27:15.617Z,28.30
2018-03-27T04:28:17.103Z,28.20
2018-03-27T04:29:18.597Z,28.70
2018-03-27T04:30:21.633Z,27.83
2018-03-27T04:31:23.155Z,29.83
2018-03-27T04:32:24.739Z,29.98
2018-03-27T04:33:26.278Z,29.43
2018-03-27T04:34:27.813Z,29.50
2018-03-27T04:35:29.384Z,30.30
2018-03-27T04:36:31.672Z,31.03
2018-03-27T04:38:32.181Z,31.85
2018-03-27T04:39:34.524Z,31.27
2018-03-27T04:40:36.099Z,30.67
2018-03-27T04:41:38.475Z,32.10
2018-03-27T04:42:40.845Z,33.40
2018-03-27T04:43:43.630Z,33.50
2018-03-27T04:44:45.294Z,32.20
2018-03-27T04:45:47.715Z,33.20
2018-03-27T04:46:49.383Z,31.37
2018-03-27T04:47:51.869Z,34.20
2018-03-27T04:48:53.491Z,31.50
2018-03-27T04:49:55.158Z,36.77
2018-03-27T04:50:56.785Z,35.67
2018-03-27T04:51:58.466Z,36.07
2018-03-27T04:53:00.111Z,33.47
2018-03-27T04:54:01.702Z,35.33
2018-03-27T04:55:03.384Z,35.43
2018-03-27T04:56:06.689Z,34.43
2018-03-27T04:57:08.365Z,37.37
2018-03-27T04:58:10.736Z,33.77
2018-03-27T04:59:12.366Z,37.97
2018-03-27T05:00:13.992Z,36.13
2018-03-27T05:01:15.656Z,33.50
2018-03-27T05:02:17.466Z,35.60
2018-03-27T05:03:19.083Z,36.90
2018-03-27T05:04:22.478Z,37.70
2018-03-27T05:05:24.884Z,37.87
2018-03-27T05:06:26.922Z,37.17
2018-03-27T05:07:29.285Z,36.77
2018-03-27T05:08:31.761Z,36.47
2018-03-27T05:09:33.415Z,36.07
2018-03-27T05:10:35.067Z,36.03
2018-03-27T05:11:37.885Z,38.13
2018-03-27T05:12:39.557Z,36.20
2018-03-27T05:14:20.152Z,34.80
2018-03-27T05:15:23.483Z,36.17
2018-03-27T05:16:26.769Z,35.70
2018-03-27T05:19:39.641Z,37.63
2018-03-27T05:20:41.662Z,37.73
2018-03-27T05:21:43.320Z,38.07
2018-03-27T05:22:44.953Z,36.73
2018-03-27T05:23:47.353Z,35.97
2018-03-27T05:24:49.039Z,35.80
2018-03-27T05:25:50.691Z,36.47
2018-03-27T05:26:52.329Z,36.10
2018-03-27T05:27:53.995Z,36.73
2018-03-27T05:28:55.603Z,38.17
2018-03-27T05:29:57.213Z,37.07
2018-03-27T05:30:59.611Z,30.73
2018-03-27T05:32:01.241Z,36.13
2018-03-27T05:34:01.101Z,37.00
2018-03-27T05:35:02.785Z,36.87
2018-03-27T05:36:04.433Z,36.90
2018-03-27T05:37:06.792Z,35.43
2018-03-27T05:38:08.586Z,36.60
2018-03-27T05:41:12.221Z,34.70
2018-03-27T05:42:13.891Z,36.60
2018-03-27T05:43:15.563Z,36.93
2018-03-27T05:44:17.232Z,36.47
2018-03-27T05:45:20.512Z,35.93
2018-03-27T05:46:22.137Z,35.73
2018-03-27T05:47:23.775Z,33.93
2018-03-27T05:48:25.465Z,34.80
2018-03-27T05:49:27.145Z,36.10
2018-03-27T05:50:28.810Z,31.63
2018-03-27T05:51:31.931Z,29.57
2018-03-27T05:52:33.578Z,31.83
2018-03-27T05:53:35.253Z,35.90
2018-03-27T05:54:36.925Z,35.33
2018-03-27T05:56:11.455Z,36.47
2018-03-27T05:57:13.415Z,34.53
2018-03-27T05:58:15.083Z,35.83
2018-03-27T05:59:16.686Z,34.43
2018-03-27T06:00:56.931Z,33.77
2018-03-27T06:01:58.605Z,35.67
2018-03-27T06:03:01.975Z,32.60
2018-03-27T06:05:50.511Z,35.90
2018-03-27T06:06:53.242Z,32.53
2018-03-27T06:07:56.529Z,31.73
2018-03-27T06:08:58.281Z,34.83
2018-03-27T06:09:59.989Z,35.60
2018-03-27T06:11:01.976Z,30.03
2018-03-27T06:12:03.674Z,35.47
2018-03-27T06:13:06.780Z,34.63
2018-03-27T06:14:08.500Z,34.43
2018-03-27T06:15:10.165Z,36.00
2018-03-27T06:16:11.794Z,36.53
2018-03-27T06:17:13.504Z,34.80
2018-03-27T06:18:16.859Z,35.60
2018-03-27T06:19:18.552Z,35.63
2018-03-27T06:20:20.203Z,35.80
2018-03-27T06:21:21.826Z,37.40
2018-03-27T06:22:23.441Z,36.13
2018-03-27T06:23:25.105Z,37.10
2018-03-27T06:24:26.746Z,35.60
2018-03-27T06:25:28.537Z,35.87
2018-03-27T06:26:30.166Z,35.23
2018-03-27T06:27:31.814Z,33.60
2018-03-27T06:28:34.160Z,36.67
2018-03-27T06:29:35.874Z,32.50
2018-03-27T06:30:37.657Z,35.30
2018-03-27T06:31:39.331Z,33.80
2018-03-27T06:32:40.979Z,36.47
2018-03-27T06:33:42.651Z,36.43
2018-03-27T06:34:44.394Z,32.77
2018-03-27T06:35:46.834Z,34.40
2018-03-27T06:36:48.569Z,33.80
2018-03-27T06:37:51.699Z,30.20
2018-03-27T06:38:53.455Z,31.00
2018-03-27T06:39:55.219Z,30.77
2018-03-27T06:40:56.959Z,34.70
2018-03-27T06:43:22.593Z,34.67
2018-03-27T06:44:24.253Z,34.10
2018-03-27T06:45:26.729Z,34.33
2018-03-27T06:46:28.437Z,34.30
2018-03-27T06:47:30.125Z,33.63
2018-03-27T06:49:08.600Z,34.77
2018-03-27T06:50:10.297Z,31.60
2018-03-27T06:51:13.131Z,34.20
2018-03-27T06:52:14.804Z,33.90
2018-03-27T06:53:16.517Z,35.93
2018-03-27T06:54:18.216Z,36.73
2018-03-27T06:55:19.905Z,33.80
2018-03-27T06:56:22.392Z,34.67
2018-03-27T06:57:24.848Z,34.80
2018-03-27T06:58:26.507Z,33.07
2018-03-27T06:59:28.240Z,35.17
2018-03-27T07:00:29.998Z,36.00
2018-03-27T07:01:31.735Z,34.03
2018-03-27T07:02:33.440Z,35.40
2018-03-27T07:03:36.793Z,35.83
2018-03-27T07:04:38.506Z,34.43
2018-03-27T07:05:40.320Z,37.23
2018-03-27T07:06:41.946Z,35.20
2018-03-27T07:07:45.310Z,36.20
2018-03-27T07:11:18.904Z,33.03
2018-03-27T07:13:41.872Z,35.30
2018-03-27T07:16:59.439Z,35.60
2018-03-27T07:18:45.157Z,35.20
2018-03-27T07:23:16.370Z,34.67
2018-03-27T07:24:19.736Z,34.13
2018-03-27T07:25:21.526Z,36.03
2018-03-27T07:26:23.938Z,32.33
2018-03-27T07:27:26.698Z,33.90
2018-03-27T07:28:28.397Z,34.13
2018-03-27T07:29:30.119Z,35.37
2018-03-27T07:30:31.909Z,35.53
2018-03-27T07:31:33.603Z,34.80
2018-03-27T07:32:35.304Z,40.90
2018-03-27T07:33:37.802Z,46.73
2018-03-27T07:34:41.170Z,41.93
2018-03-27T07:35:42.960Z,37.43
2018-03-27T07:36:44.720Z,37.67
2018-03-27T07:37:47.132Z,35.67
2018-03-27T07:38:48.855Z,34.45
2018-03-27T07:39:50.657Z,34.63
2018-03-27T07:40:52.330Z,36.40
2018-03-27T07:41:54.010Z,32.57
2018-03-27T07:42:57.195Z,32.47
2018-03-27T07:45:16.868Z,33.73
2018-03-27T07:46:18.638Z,33.90
2018-03-27T07:47:20.409Z,31.40
2018-03-27T07:48:23.667Z,32.23
2018-03-27T07:49:25.494Z,34.43
2018-03-27T07:50:27.270Z,33.17
2018-03-27T07:51:29.708Z,34.97
2018-03-27T07:52:31.876Z,29.13
2018-03-27T07:53:33.595Z,34.83
2018-03-27T07:55:57.556Z,31.67
2018-03-27T07:59:05.677Z,31.73
2018-03-27T08:00:09.106Z,33.47
2018-03-27T08:01:11.953Z,32.10
2018-03-27T08:02:15.162Z,28.50
2018-03-27T08:03:16.908Z,31.83
2018-03-27T08:04:20.279Z,33.57
2018-03-27T08:05:22.088Z,32.97
2018-03-27T08:06:23.814Z,33.37
2018-03-27T08:08:43.810Z,32.73
2018-03-27T08:09:46.794Z,31.17
2018-03-27T08:11:10.168Z,32.07
2018-03-27T08:12:12.630Z,30.73
2018-03-27T08:19:04.533Z,31.03
2018-03-27T08:21:42.149Z,27.60
2018-03-27T08:22:43.836Z,28.27
2018-03-27T08:23:45.540Z,30.10
2018-03-27T08:24:47.232Z,27.47
2018-03-27T08:25:48.934Z,28.83
2018-03-27T08:26:50.640Z,30.67
2018-03-27T08:27:52.421Z,31.20
2018-03-27T08:29:28.408Z,27.03
2018-03-27T08:32:52.953Z,28.53
2018-03-27T08:33:55.424Z,28.57
2018-03-27T08:39:58.350Z,26.70
2018-03-27T08:41:01.756Z,27.87
2018-03-27T08:42:03.482Z,28.33
2018-03-27T08:43:05.169Z,26.80
2018-03-27T08:44:07.339Z,30.53
2018-03-27T08:45:34.775Z,26.47
2018-03-27T08:46:37.510Z,21.80
2018-03-27T08:47:39.040Z,29.90
2018-03-27T08:51:39.126Z,30.70
2018-03-27T08:52:41.950Z,32.97
2018-03-27T08:56:27.770Z,31.90
2018-03-27T08:57:31.139Z,29.07
2018-03-27T09:00:27.780Z,30.90
2018-03-27T09:10:05.442Z,28.90
2018-03-27T09:11:07.148Z,26.43
2018-03-27T09:12:08.884Z,29.73
2018-03-27T09:13:11.666Z,27.13
2018-03-27T09:14:14.130Z,30.00
2018-03-27T09:15:16.588Z,28.93
2018-03-27T09:16:19.048Z,29.30
2018-03-27T09:25:18.214Z,28.80
2018-03-27T09:26:20.794Z,25.30
2018-03-27T09:27:23.996Z,27.40
2018-03-27T09:28:25.873Z,30.07
2018-03-27T09:29:27.585Z,28.57
2018-03-27T09:30:29.302Z,28.63
2018-03-27T09:32:54.674Z,24.60
2018-03-27T09:33:57.476Z,26.17
2018-03-27T09:34:59.217Z,25.70
2018-03-27T09:41:19.186Z,24.37
2018-03-27T09:42:20.885Z,25.63
2018-03-27T09:43:22.651Z,22.90
2018-03-27T09:44:26.030Z,24.10
2018-03-27T09:47:07.226Z,24.03
2018-03-27T09:48:08.950Z,26.87
2018-03-27T09:49:10.660Z,25.37
2018-03-27T09:50:12.305Z,24.60
2018-03-27T09:51:13.984Z,24.87
2018-03-27T09:52:16.801Z,26.80
2018-03-27T09:53:19.647Z,27.37
2018-03-27T09:54:21.329Z,27.87
2018-03-27T09:57:09.711Z,29.53
2018-03-27T09:58:11.601Z,26.77
2018-03-27T10:00:40.172Z,26.73
2018-03-27T10:01:42.172Z,27.57
2018-03-27T10:02:44.692Z,28.47
2018-03-27T10:03:47.270Z,28.00
2018-03-27T10:04:50.568Z,27.40
2018-03-27T10:05:52.604Z,28.80
2018-03-27T10:17:36.930Z,24.70
2018-03-27T10:21:06.793Z,22.77
2018-03-27T10:22:54.325Z,23.20
2018-03-27T10:23:56.034Z,23.47
2018-03-27T10:25:16.680Z,23.13
2018-03-27T10:26:18.440Z,25.20
2018-03-27T10:27:21.855Z,22.20
2018-03-27T10:28:23.557Z,25.70
2018-03-27T10:29:25.624Z,25.20
2018-03-27T10:30:27.344Z,24.57
2018-03-27T10:31:29.093Z,23.90
2018-03-27T10:32:31.871Z,22.53
2018-03-27T10:33:35.250Z,21.83
2018-03-27T10:34:37.049Z,21.60
2018-03-27T10:35:38.762Z,20.50
2018-03-27T10:39:27.363Z,22.07
2018-03-27T10:40:29.055Z,20.70
2018-03-27T10:42:37.584Z,19.42
2018-03-27T10:43:41.325Z,20.20
2018-03-27T10:44:43.079Z,18.93
2018-03-27T10:46:18.116Z,16.90
2018-03-27T10:47:19.938Z,16.93
2018-03-27T10:48:21.706Z,17.55
2018-03-27T10:50:22.414Z,17.87
2018-03-27T10:51:48.424Z,17.80
2018-03-27T10:52:51.786Z,18.17
2018-03-27T10:56:12.087Z,15.13
2018-03-27T10:58:43.703Z,18.77
2018-03-27T10:59:45.423Z,16.40
2018-03-27T11:00:47.148Z,17.23
2018-03-27T11:01:48.952Z,16.30
2018-03-27T11:02:50.626Z,17.80
2018-03-27T11:06:28.750Z,17.55
2018-03-27T11:14:41.305Z,18.80
2018-03-27T11:15:44.416Z,20.33
2018-03-27T11:18:03.295Z,20.37
2018-03-27T11:20:52.330Z,26.73
2018-03-27T11:27:00.312Z,30.43
2018-03-27T11:28:02.087Z,32.83
2018-03-27T11:35:12.559Z,34.77
2018-03-27T11:36:14.116Z,41.10
2018-03-27T11:37:17.199Z,39.83
2018-03-27T11:38:20.435Z,39.30
2018-03-27T11:41:31.738Z,40.10
2018-03-27T11:42:35.217Z,36.30
2018-03-27T11:43:37.257Z,34.73
2018-03-27T11:45:59.031Z,37.40
2018-03-27T11:47:01.516Z,39.17
2018-03-27T11:48:04.722Z,31.53
2018-03-27T11:49:07.810Z,42.80
2018-03-27T11:50:10.293Z,37.40
2018-03-27T11:51:12.764Z,39.03
2018-03-27T11:52:15.261Z,37.77
2018-03-27T11:53:17.741Z,40.13
2018-03-27T11:54:19.513Z,32.03
2018-03-27T11:58:13.560Z,38.77
2018-03-27T12:01:55.264Z,38.23
2018-03-27T12:05:59.591Z,38.57
2018-03-27T12:07:01.327Z,35.87
2018-03-27T12:08:03.106Z,33.63
2018-03-27T12:13:28.753Z,36.67
2018-03-27T12:15:16.910Z,37.47
2018-03-27T12:16:18.649Z,39.30
2018-03-27T12:17:21.472Z,34.63
2018-03-27T12:21:23.746Z,33.90
2018-03-27T12:22:27.115Z,35.43
2018-03-27T12:23:29.913Z,37.60
2018-03-27T12:28:24.930Z,33.10
2018-03-27T12:30:47.021Z,34.77
2018-03-27T12:31:49.860Z,35.20
2018-03-27T12:32:51.578Z,32.87
2018-03-27T12:33:53.302Z,31.77
2018-03-27T12:34:55.054Z,28.07
2018-03-27T12:35:56.683Z,31.07
2018-03-27T12:38:42.618Z,31.13
2018-03-27T12:39:44.287Z,30.40
2018-03-27T12:40:45.890Z,28.27
2018-03-27T12:42:42.730Z,29.60
2018-03-27T12:43:44.386Z,28.00
2018-03-27T12:44:46.052Z,28.90
2018-03-27T12:45:47.692Z,28.33
2018-03-27T12:46:49.380Z,28.33
2018-03-27T12:47:51.092Z,29.07
2018-03-27T12:48:52.933Z,27.53
2018-03-27T12:50:40.432Z,29.10
2018-03-27T12:53:55.996Z,23.93
2018-03-27T12:54:57.694Z,26.73
2018-03-27T12:55:59.410Z,27.73
2018-03-27T12:57:01.121Z,27.57
2018-03-27T12:58:02.812Z,27.13
2018-03-27T12:59:04.600Z,27.23
2018-03-27T13:00:06.275Z,25.47
2018-03-27T13:03:14.847Z,24.30
2018-03-27T13:04:17.227Z,22.90
2018-03-27T13:06:36.584Z,21.13
2018-03-27T13:07:38.352Z,20.53
2018-03-27T13:08:41.710Z,21.20
2018-03-27T13:12:33.916Z,21.27
2018-03-27T13:13:36.748Z,20.60
2018-03-27T13:14:38.473Z,21.60
2018-03-27T13:15:41.782Z,23.80
2018-03-27T13:16:44.929Z,25.87
2018-03-27T13:17:46.617Z,27.00
2018-03-27T13:18:49.787Z,25.67
2018-03-27T13:19:51.777Z,22.07
2018-03-27T13:20:54.209Z,22.43
2018-03-27T13:21:56.576Z,24.13
2018-03-27T13:22:58.235Z,22.43
2018-03-27T13:28:01.679Z,18.83
2018-03-27T13:30:26.427Z,18.93
2018-03-27T13:32:00.737Z,18.00
2018-03-27T13:33:02.419Z,18.10
2018-03-27T13:36:15.888Z,17.63
2018-03-27T13:37:18.256Z,18.07
2018-03-27T13:39:42.495Z,16.87
2018-03-27T13:40:44.251Z,17.90
2018-03-27T13:42:31.634Z,18.27
2018-03-27T13:43:34.761Z,16.33
2018-03-27T13:45:14.212Z,17.80
2018-03-27T13:46:15.864Z,16.60
2018-03-27T13:47:17.574Z,16.07
2018-03-27T13:49:13.601Z,16.33
2018-03-27T13:52:07.793Z,17.53
2018-03-27T13:53:09.559Z,17.53
2018-03-27T13:55:09.449Z,17.83
2018-03-27T13:57:30.936Z,17.80
2018-03-27T14:02:12.569Z,15.90
2018-03-27T14:06:53.377Z,19.90
2018-03-27T14:07:56.566Z,20.43
2018-03-27T14:08:58.234Z,20.43
2018-03-27T14:11:21.444Z,20.47
2018-03-27T14:15:25.027Z,19.17
2018-03-27T14:17:45.628Z,20.97
2018-03-27T14:18:48.100Z,19.77
2018-03-27T14:19:51.450Z,20.17
2018-03-27T14:22:28.809Z,20.93
2018-03-27T14:23:31.618Z,20.07
2018-03-27T14:24:33.292Z,19.30
2018-03-27T14:25:34.945Z,19.00
2018-03-27T14:26:36.706Z,21.80
2018-03-27T14:32:26.465Z,21.60
2018-03-27T14:34:16.719Z,19.30
2018-03-27T14:36:36.598Z,20.43
2018-03-27T14:37:39.236Z,21.27
2018-03-27T14:38:40.905Z,22.10
2018-03-27T14:39:43.712Z,21.77
2018-03-27T14:40:45.491Z,21.53
2018-03-27T14:41:47.242Z,20.00
2018-03-27T14:43:35.042Z,20.47
2018-03-27T14:45:11.857Z,21.33
2018-03-27T14:50:54.606Z,18.23
2018-03-27T14:51:56.302Z,20.67
2018-03-27T14:56:49.306Z,18.27
2018-03-27T14:58:58.668Z,22.33
2018-03-27T15:00:00.337Z,22.43
2018-03-27T15:01:01.977Z,17.53
2018-03-27T15:02:03.683Z,22.77
2018-03-27T15:03:06.486Z,22.00
2018-03-27T15:04:08.896Z,21.47
2018-03-27T15:05:12.220Z,20.30
2018-03-27T15:06:14.303Z,22.77
2018-03-27T15:07:16.741Z,25.37
2018-03-27T15:08:18.368Z,22.60
2018-03-27T15:10:33.952Z,18.00
2018-03-27T15:15:15.282Z,18.23
2018-03-27T15:20:42.388Z,21.13
2018-03-27T15:21:44.793Z,20.17
2018-03-27T15:22:47.257Z,20.30
2018-03-27T15:23:48.911Z,20.10
2018-03-27T15:24:52.252Z,19.77
2018-03-27T16:01:50.897Z,20.30
2018-03-27T16:02:53.998Z,20.70
2018-03-27T16:03:57.194Z,21.13
2018-03-27T16:04:58.930Z,20.30
2018-03-27T16:06:00.588Z,17.70
2018-03-27T16:07:02.273Z,19.57
2018-03-27T16:08:04.006Z,21.13
2018-03-27T16:09:07.732Z,20.93
2018-03-27T16:10:11.114Z,20.90
2018-03-27T16:11:14.452Z,20.87
2018-03-27T16:12:16.152Z,20.40
2018-03-27T16:13:17.841Z,19.73
2018-03-27T16:14:19.468Z,21.50
2018-03-27T16:15:21.154Z,20.33
2018-03-27T16:16:24.528Z,20.43
2018-03-27T16:17:26.946Z,19.73
2018-03-27T16:18:29.436Z,20.17
2018-03-27T16:19:31.128Z,21.07
2018-03-27T16:20:34.486Z,20.20
2018-03-27T16:21:36.142Z,21.37
2018-03-27T16:22:38.676Z,21.23
2018-03-27T16:23:40.436Z,21.40
2018-03-27T16:26:00.748Z,21.70
2018-03-27T16:29:34.523Z,19.47
2018-03-27T16:30:36.162Z,22.50
2018-03-27T16:32:01.556Z,21.37
2018-03-27T16:33:03.135Z,22.43
2018-03-27T16:34:06.410Z,23.33
2018-03-27T16:35:59.745Z,22.50
2018-03-27T16:37:02.193Z,21.37
2018-03-27T16:38:03.927Z,21.67
2018-03-27T16:40:39.375Z,22.13
2018-03-27T16:41:41.049Z,22.93
2018-03-27T16:42:44.184Z,22.60
2018-03-27T16:43:45.583Z,22.70
2018-03-27T16:44:47.313Z,23.87
2018-03-27T16:45:48.973Z,23.97
2018-03-27T16:46:51.099Z,22.97
2018-03-27T16:47:52.745Z,22.40
2018-03-27T16:48:56.084Z,22.00
2018-03-27T16:50:25.274Z,22.87
2018-03-27T16:52:46.335Z,21.37
2018-03-27T16:53:49.636Z,20.47
2018-03-27T16:54:52.987Z,20.83
2018-03-27T16:55:56.344Z,20.07
2018-03-27T17:00:21.809Z,20.43
2018-03-27T17:01:25.196Z,20.70
2018-03-27T17:02:27.276Z,19.83
2018-03-27T17:03:29.193Z,20.43
2018-03-27T17:04:30.922Z,19.93
2018-03-27T17:05:34.547Z,20.83
2018-03-27T17:10:59.189Z,23.53
2018-03-27T17:12:02.135Z,25.10
2018-03-27T17:13:47.168Z,31.50
2018-03-27T17:14:48.967Z,25.73
2018-03-27T17:15:52.679Z,25.57
2018-03-27T17:16:54.453Z,26.30
2018-03-27T17:17:58.049Z,26.70
2018-03-27T17:19:01.495Z,24.17
2018-03-27T17:20:03.322Z,24.53
2018-03-27T17:21:06.706Z,25.10
2018-03-27T17:22:49.364Z,23.80
2018-03-27T17:23:51.007Z,24.67
2018-03-27T17:24:54.349Z,24.67
2018-03-27T17:26:42.013Z,23.87
2018-03-27T17:27:45.045Z,24.23
2018-03-27T17:28:48.068Z,24.53
2018-03-27T17:29:49.513Z,25.73
2018-03-27T17:30:52.098Z,25.30
2018-03-27T17:31:54.302Z,26.07
2018-03-27T17:32:57.589Z,27.43
2018-03-27T17:33:59.522Z,27.50
2018-03-27T17:35:03.143Z,25.80
2018-03-27T17:36:06.523Z,26.00
2018-03-27T17:37:08.291Z,25.73
2018-03-27T17:38:10.061Z,26.80
2018-03-27T17:39:13.147Z,24.07
2018-03-27T17:40:16.548Z,25.90
2018-03-27T17:41:18.129Z,25.77
2018-03-27T17:42:42.727Z,25.60
2018-03-27T17:44:17.026Z,23.53
2018-03-27T17:45:20.131Z,23.90
2018-03-27T17:46:22.931Z,20.77
2018-03-27T17:47:24.575Z,22.03
2018-03-27T17:48:26.152Z,20.97
2018-03-27T17:49:29.416Z,21.60
2018-03-27T17:50:32.682Z,20.40
2018-03-27T17:51:34.371Z,19.33
2018-03-27T17:52:37.193Z,19.93
2018-03-27T17:53:40.458Z,18.87
2018-03-27T17:54:42.864Z,18.30
2018-03-27T17:55:46.128Z,18.97
2018-03-27T18:01:59.752Z,19.00
2018-03-27T18:03:01.341Z,16.97
2018-03-27T18:04:04.596Z,17.67
2018-03-27T18:05:07.923Z,17.00
2018-03-27T18:06:11.154Z,17.50
2018-03-27T18:07:14.380Z,17.80
2018-03-27T18:08:15.893Z,17.57
2018-03-27T18:09:19.161Z,17.80
2018-03-27T18:10:22.390Z,17.07
2018-03-27T18:11:24.994Z,17.33
2018-03-27T18:13:10.949Z,17.70
2018-03-27T18:14:13.172Z,18.50
2018-03-27T18:15:14.632Z,18.77
2018-03-27T18:16:16.125Z,18.93
2018-03-27T18:17:17.625Z,18.53
2018-03-27T18:18:19.135Z,19.73
2018-03-27T18:19:20.601Z,18.87
2018-03-27T18:20:22.086Z,19.93
2018-03-27T18:21:25.324Z,21.23